KEMP

Details ICAO KEMP (KEX)
Name EMPORIA MUNI
Region United States
Timezone America/Chicago (UTC-6.0)
Plans Departing 3
Arriving 1
Stats Elevation 1,208 ft / 368 m (AMSL)
Location 38.330315° -96.189764°
Runways 2
Magnetic Variation 2.820° E
Sunrise 2017-12-12 13:34:01 UTC / 2017-12-12 07:34:01 Local
Sunset 2017-12-12 23:06:04 UTC / 2017-12-12 17:06:04 Local
Advertisement - Login to hide

Runways

ID Width Length Bearing (true) Bearing (mag) Surface Threshold Offset Overrun Length
01 98 ft / 30 m 5,005 ft / 1,525 m 12.03° 9.21° Asphalt 0 ft / 0 m 0 ft / 0 m
06 299 ft / 91 m 3,879 ft / 1,182 m 63.51° 60.69° Grass 0 ft / 0 m 0 ft / 0 m
19 98 ft / 30 m 5,005 ft / 1,525 m 192.03° 189.21° Asphalt 0 ft / 0 m 0 ft / 0 m
24 299 ft / 91 m 3,879 ft / 1,182 m 243.51° 240.69° Grass 0 ft / 0 m 0 ft / 0 m

Map

Weather


0- 5 10 15 20 25 30 35+ Temperature / ° C

Clouds and Precipitation
Forecast for 2017-12-12 06:00 UTC. Updated an hour ago

Ground ~20,000 ft ~40,000 ft Winds

METAR

KEMP 120553Z AUTO 33018G23KT 10SM CLR 03/M03 A3032 RMK AO2 PK WND 34031/0517 SLP271 T00331033 10094 20033 401500028 51022

TAF

Not found

Frequencies

Recorded 124.67 MHz ASOS
Approach 127.72 MHz KANSAS CITY CNTR
Unicom 122.80 MHz CTAF/UNICOM
Warning: Do not use this data for real-world aviation or navigation. No guarantee of current accuracy is given.